createdAt,value
2022-10-19T00:01:06.421Z,93.62
2022-10-19T00:03:35.175Z,93.98
2022-10-19T00:06:12.028Z,94.51
2022-10-19T00:08:39.713Z,94.43
2022-10-19T00:11:07.305Z,94.74
2022-10-19T00:13:34.472Z,94.27
2022-10-19T00:16:01.665Z,94.27
2022-10-19T00:18:29.011Z,95.05
2022-10-19T00:21:04.339Z,94.76
2022-10-19T00:23:31.927Z,94.66
2022-10-19T00:25:59.666Z,94.52
2022-10-19T00:28:27.396Z,94.93
2022-10-19T00:30:54.684Z,95.09
2022-10-19T00:33:22.656Z,94.66
2022-10-19T00:35:51.703Z,94.41
2022-10-19T00:38:20.888Z,94.65
2022-10-19T00:40:49.029Z,94.70
2022-10-19T00:43:19.052Z,94.72
2022-10-19T00:45:46.278Z,94.69
2022-10-19T00:48:17.782Z,94.62
2022-10-19T00:50:46.648Z,94.85
2022-10-19T00:53:13.766Z,95.03
2022-10-19T00:55:41.585Z,93.99
2022-10-19T00:58:09.661Z,93.59
2022-10-19T01:00:36.889Z,93.77
2022-10-19T01:03:04.994Z,94.04
2022-10-19T01:05:35.110Z,93.94
2022-10-19T01:08:02.430Z,94.64
2022-10-19T01:11:01.613Z,95.04
2022-10-19T01:14:08.725Z,95.05
2022-10-19T01:17:00.685Z,95.35
2022-10-19T01:19:52.432Z,95.81
2022-10-19T01:23:00.200Z,95.98
2022-10-19T01:25:53.215Z,96.20
2022-10-19T01:28:29.661Z,96.58
2022-10-19T01:31:08.807Z,96.87
2022-10-19T01:33:47.494Z,96.98
2022-10-19T01:36:25.658Z,96.83
2022-10-19T01:39:08.904Z,96.61
2022-10-19T01:41:43.793Z,96.41
2022-10-19T01:44:53.633Z,96.38
2022-10-19T01:47:43.273Z,96.34
2022-10-19T01:50:24.950Z,96.51
2022-10-19T01:52:53.815Z,96.67
2022-10-19T01:55:23.063Z,96.31
2022-10-19T01:57:57.055Z,96.28
2022-10-19T02:00:26.084Z,96.30
2022-10-19T02:02:54.836Z,96.05
2022-10-19T02:05:28.171Z,96.17
2022-10-19T02:07:59.832Z,95.69
2022-10-19T02:10:28.959Z,95.67
2022-10-19T02:12:56.764Z,95.49
2022-10-19T02:15:48.343Z,95.41
2022-10-19T02:18:19.975Z,95.58
2022-10-19T02:20:47.257Z,95.82
2022-10-19T02:23:18.787Z,95.51
2022-10-19T02:25:45.887Z,96.27
2022-10-19T02:28:13.778Z,96.92
2022-10-19T02:30:42.560Z,96.84
2022-10-19T02:33:09.840Z,97.37
2022-10-19T02:35:37.018Z,97.65
2022-10-19T02:38:05.985Z,97.53
2022-10-19T02:40:38.357Z,97.84
2022-10-19T02:43:11.010Z,97.89
2022-10-19T02:45:44.781Z,97.71
2022-10-19T02:48:18.990Z,98.60
2022-10-19T02:50:49.792Z,99.38
2022-10-19T02:53:17.315Z,99.27
2022-10-19T02:55:59.421Z,99.09
2022-10-19T02:58:50.702Z,99.28
2022-10-19T03:01:18.765Z,99.30
2022-10-19T03:06:54.348Z,99.60
2022-10-19T03:09:49.144Z,100.00
2022-10-19T03:12:16.299Z,99.91
2022-10-19T03:14:43.952Z,99.97
2022-10-19T03:17:12.210Z,100.00
2022-10-19T03:19:40.202Z,99.83
2022-10-19T03:22:07.621Z,99.55
2022-10-19T03:24:34.758Z,99.76
2022-10-19T03:27:02.845Z,99.78
2022-10-19T03:29:30.448Z,100.00
2022-10-19T03:31:58.133Z,100.00
2022-10-19T03:34:25.202Z,100.00
2022-10-19T03:36:52.366Z,100.00
2022-10-19T03:39:19.776Z,100.00
2022-10-19T03:41:47.148Z,100.00
2022-10-19T03:44:14.469Z,100.00
2022-10-19T03:46:45.487Z,100.00
2022-10-19T03:49:16.073Z,100.00
2022-10-19T03:51:43.856Z,100.00
2022-10-19T03:54:16.459Z,100.00
2022-10-19T03:56:44.077Z,100.00
2022-10-19T03:59:15.170Z,100.00
2022-10-19T04:01:45.138Z,100.00
2022-10-19T04:04:18.266Z,100.00
2022-10-19T04:06:47.976Z,100.00
2022-10-19T04:09:18.214Z,100.00
2022-10-19T04:11:45.409Z,100.00
2022-10-19T04:14:22.687Z,100.00
2022-10-19T04:16:59.726Z,100.00
2022-10-19T04:19:27.028Z,100.00
2022-10-19T04:21:54.364Z,100.00
2022-10-19T04:24:21.881Z,100.00
2022-10-19T04:26:55.531Z,100.00
2022-10-19T04:29:27.888Z,100.00
2022-10-19T04:31:57.493Z,100.00
2022-10-19T04:34:25.015Z,100.00
2022-10-19T04:36:53.423Z,100.00
2022-10-19T04:39:20.585Z,100.00
2022-10-19T04:41:48.245Z,100.00
2022-10-19T04:44:15.776Z,100.00
2022-10-19T04:46:43.312Z,100.00
2022-10-19T04:49:10.340Z,100.00
2022-10-19T04:51:37.285Z,100.00
2022-10-19T04:54:04.813Z,100.00
2022-10-19T04:56:33.381Z,100.00
2022-10-19T04:59:01.517Z,100.00
2022-10-19T05:01:30.647Z,100.00
2022-10-19T05:04:00.678Z,100.00
2022-10-19T05:06:28.875Z,100.00
2022-10-19T05:08:56.186Z,100.00
2022-10-19T05:11:49.071Z,100.00
2022-10-19T05:14:16.894Z,100.00
2022-10-19T05:16:44.103Z,100.00
2022-10-19T05:19:14.629Z,100.00
2022-10-19T05:21:41.756Z,100.00
2022-10-19T05:24:12.373Z,100.00
2022-10-19T05:26:39.965Z,100.00
2022-10-19T05:29:11.235Z,100.00
2022-10-19T05:31:41.519Z,100.00
2022-10-19T05:36:40.963Z,99.59
2022-10-19T05:39:18.705Z,99.86
2022-10-19T05:41:50.033Z,100.00
2022-10-19T05:44:20.138Z,99.74
2022-10-19T05:46:48.133Z,100.00
2022-10-19T05:49:17.471Z,100.00
2022-10-19T05:51:45.050Z,100.00
2022-10-19T05:54:12.938Z,99.91
2022-10-19T05:56:41.074Z,98.78
2022-10-19T05:59:15.036Z,98.56
2022-10-19T06:01:41.976Z,98.29
2022-10-19T06:04:18.395Z,98.21
2022-10-19T06:06:46.107Z,98.24
2022-10-19T06:09:13.372Z,98.89
2022-10-19T06:11:41.913Z,98.97
2022-10-19T06:14:13.197Z,99.12
2022-10-19T06:16:40.304Z,99.07
2022-10-19T06:19:07.394Z,98.77
2022-10-19T06:21:34.850Z,98.93
2022-10-19T06:24:04.970Z,98.81
2022-10-19T06:26:33.389Z,98.51
2022-10-19T06:29:01.239Z,98.55
2022-10-19T06:31:33.436Z,97.59
2022-10-19T06:34:00.737Z,97.79
2022-10-19T06:36:30.145Z,97.79
2022-10-19T06:38:57.636Z,97.96
2022-10-19T06:41:24.582Z,97.78
2022-10-19T06:43:54.237Z,98.09
2022-10-19T06:46:23.698Z,96.97
2022-10-19T06:48:58.573Z,96.99
2022-10-19T06:51:27.517Z,97.09
2022-10-19T06:53:57.105Z,96.56
2022-10-19T06:56:26.086Z,96.84
2022-10-19T06:58:54.704Z,96.27
2022-10-19T07:01:22.725Z,96.28
2022-10-19T07:03:52.025Z,96.07
2022-10-19T07:06:20.114Z,96.05
2022-10-19T07:08:47.560Z,96.08
2022-10-19T07:11:19.748Z,95.93
2022-10-19T07:13:47.063Z,95.58
2022-10-19T07:16:21.269Z,95.05
2022-10-19T07:18:51.613Z,94.53
2022-10-19T07:21:19.964Z,94.29
2022-10-19T07:23:47.757Z,94.58
2022-10-19T07:26:23.445Z,95.00
2022-10-19T07:28:51.544Z,94.53
2022-10-19T07:31:22.350Z,94.47
2022-10-19T07:33:57.190Z,93.50
2022-10-19T07:36:24.888Z,93.71
2022-10-19T07:38:52.737Z,93.52
2022-10-19T07:41:22.046Z,92.73
2022-10-19T07:43:49.966Z,92.53
2022-10-19T07:46:25.609Z,92.26
2022-10-19T07:48:53.896Z,91.91
2022-10-19T07:51:22.753Z,92.01
2022-10-19T07:53:49.957Z,92.20
2022-10-19T07:56:22.866Z,92.40
2022-10-19T07:58:51.729Z,92.88
2022-10-19T08:01:24.383Z,92.65
2022-10-19T08:06:42.793Z,93.25
2022-10-19T08:09:15.573Z,92.71
2022-10-19T08:11:49.981Z,92.24
2022-10-19T08:14:16.932Z,91.79
2022-10-19T08:16:44.800Z,91.90
2022-10-19T08:19:14.050Z,92.31
2022-10-19T08:21:43.896Z,92.07
2022-10-19T08:24:12.790Z,92.12
2022-10-19T08:26:41.015Z,92.09
2022-10-19T08:29:12.498Z,91.73
2022-10-19T08:31:40.080Z,92.59
2022-10-19T08:34:07.144Z,92.36
2022-10-19T08:36:35.839Z,93.05
2022-10-19T08:39:05.985Z,93.46
2022-10-19T08:41:51.517Z,93.51
2022-10-19T08:44:40.368Z,93.81
2022-10-19T08:47:12.340Z,94.21
2022-10-19T08:49:41.799Z,94.79
2022-10-19T08:52:34.584Z,95.14
2022-10-19T08:55:15.245Z,95.37
2022-10-19T08:58:10.655Z,95.84
2022-10-19T09:01:17.214Z,95.83
2022-10-19T09:03:55.439Z,97.03
2022-10-19T09:06:29.512Z,96.68
2022-10-19T09:08:58.388Z,96.96
2022-10-19T09:11:30.253Z,97.55
2022-10-19T09:14:28.662Z,97.67
2022-10-19T09:17:02.653Z,97.65
2022-10-19T09:19:32.158Z,97.65
2022-10-19T09:22:07.787Z,98.00
2022-10-19T09:24:51.936Z,98.22
2022-10-19T09:27:30.711Z,98.33
2022-10-19T09:30:01.523Z,98.51
2022-10-19T09:32:37.478Z,98.17
2022-10-19T09:35:28.446Z,97.63
2022-10-19T09:37:56.585Z,98.11
2022-10-19T09:40:27.127Z,98.39
2022-10-19T09:42:58.703Z,98.00
2022-10-19T09:45:32.626Z,97.77
2022-10-19T09:48:08.607Z,97.39
2022-10-19T09:50:44.690Z,97.46
2022-10-19T09:53:20.969Z,97.14
2022-10-19T09:55:57.417Z,97.29
2022-10-19T09:58:30.467Z,97.65
2022-10-19T10:01:01.418Z,96.95
2022-10-19T10:03:32.208Z,97.37
2022-10-19T10:06:04.123Z,97.42
2022-10-19T10:08:58.050Z,97.67
2022-10-19T10:11:28.999Z,97.51
2022-10-19T10:13:58.417Z,97.29
2022-10-19T10:16:30.612Z,97.87
2022-10-19T10:19:03.249Z,97.13
2022-10-19T10:21:34.853Z,97.44
2022-10-19T10:24:06.008Z,96.34
2022-10-19T10:26:40.457Z,96.85
2022-10-19T10:29:24.995Z,96.40
2022-10-19T10:32:14.488Z,96.28
2022-10-19T10:35:00.011Z,96.04
2022-10-19T10:37:31.507Z,95.95
2022-10-19T10:40:01.932Z,96.22
2022-10-19T10:42:44.015Z,96.70
2022-10-19T10:45:26.660Z,97.07
2022-10-19T10:47:54.413Z,96.75
2022-10-19T10:50:28.206Z,96.58
2022-10-19T10:53:04.783Z,96.46
2022-10-19T10:55:32.678Z,96.64
2022-10-19T10:58:26.780Z,97.15
2022-10-19T11:00:57.273Z,97.24
2022-10-19T11:03:29.199Z,97.68
2022-10-19T11:06:01.188Z,98.02
2022-10-19T11:08:47.644Z,98.82
2022-10-19T11:11:20.719Z,99.13
2022-10-19T11:13:57.021Z,99.83
2022-10-19T11:16:29.168Z,100.00
2022-10-19T11:19:23.463Z,100.00
2022-10-19T11:21:56.508Z,100.00
2022-10-19T11:24:27.096Z,100.00
2022-10-19T11:27:24.425Z,100.00
2022-10-19T11:30:23.760Z,100.00
2022-10-19T11:32:56.707Z,100.00
2022-10-19T11:35:36.050Z,100.00
2022-10-19T11:38:29.628Z,100.00
2022-10-19T11:41:19.367Z,100.00
2022-10-19T11:43:53.882Z,100.00
2022-10-19T11:46:38.943Z,100.00
2022-10-19T11:49:34.261Z,100.00
2022-10-19T11:52:20.994Z,100.00
2022-10-19T11:54:53.953Z,100.00
2022-10-19T11:57:30.968Z,100.00
2022-10-19T12:00:27.218Z,100.00
2022-10-19T12:03:21.504Z,100.00
2022-10-19T12:06:01.126Z,100.00
2022-10-19T12:09:02.508Z,100.00
2022-10-19T12:11:57.124Z,100.00
2022-10-19T12:14:30.393Z,100.00
2022-10-19T12:17:02.672Z,100.00
2022-10-19T12:19:36.743Z,100.00
2022-10-19T12:22:06.567Z,100.00
2022-10-19T12:24:34.622Z,100.00
2022-10-19T12:27:02.329Z,100.00
2022-10-19T12:29:34.314Z,100.00
2022-10-19T12:32:03.146Z,100.00
2022-10-19T12:34:33.411Z,100.00
2022-10-19T12:37:24.375Z,100.00
2022-10-19T12:40:00.845Z,100.00
2022-10-19T12:42:52.074Z,100.00
2022-10-19T12:45:24.045Z,100.00
2022-10-19T12:48:12.457Z,100.00
2022-10-19T12:50:48.738Z,100.00
2022-10-19T12:53:38.129Z,100.00
2022-10-19T12:56:07.343Z,99.88
2022-10-19T12:58:50.321Z,99.60
2022-10-19T13:01:42.815Z,100.00
2022-10-19T13:04:31.496Z,100.00
2022-10-19T13:06:59.313Z,100.00
2022-10-19T13:09:44.142Z,100.00
2022-10-19T13:12:17.764Z,100.00
2022-10-19T13:14:58.679Z,100.00
2022-10-19T13:17:36.653Z,100.00
2022-10-19T13:20:15.910Z,100.00
2022-10-19T13:23:13.984Z,99.65
2022-10-19T13:25:42.246Z,99.65
2022-10-19T13:28:09.405Z,99.92
2022-10-19T13:30:39.171Z,99.58
2022-10-19T13:33:24.961Z,100.00
2022-10-19T13:36:04.644Z,99.77
2022-10-19T13:38:50.686Z,99.71
2022-10-19T13:41:21.866Z,99.54
2022-10-19T13:44:12.303Z,99.50
2022-10-19T13:46:39.139Z,99.74
2022-10-19T13:49:15.461Z,100.00
2022-10-19T13:52:11.041Z,99.26
2022-10-19T13:55:05.591Z,99.27
2022-10-19T13:57:50.156Z,99.12
2022-10-19T14:00:24.225Z,99.51
2022-10-19T14:03:11.568Z,99.53
2022-10-19T14:05:48.340Z,99.76
2022-10-19T14:08:53.000Z,99.99
2022-10-19T14:11:34.058Z,99.92
2022-10-19T14:14:21.267Z,99.54
2022-10-19T14:17:04.145Z,99.82
2022-10-19T14:19:43.770Z,98.96
2022-10-19T14:22:37.077Z,99.35
2022-10-19T14:25:18.144Z,100.00
2022-10-19T14:28:01.172Z,99.87
2022-10-19T14:30:32.407Z,99.96
2022-10-19T14:33:02.401Z,99.52
2022-10-19T14:35:32.215Z,99.30
2022-10-19T14:38:00.283Z,99.57
2022-10-19T14:40:32.804Z,99.56
2022-10-19T14:43:01.512Z,99.55
2022-10-19T14:45:31.286Z,99.64
2022-10-19T14:47:59.927Z,99.49
2022-10-19T14:50:47.730Z,99.64
2022-10-19T14:53:42.250Z,99.22
2022-10-19T14:56:20.300Z,98.85
2022-10-19T14:58:53.517Z,99.10
2022-10-19T15:01:21.390Z,98.91
2022-10-19T15:03:50.039Z,99.22
2022-10-19T15:06:24.155Z,99.05
2022-10-19T15:08:58.117Z,98.74
2022-10-19T15:11:46.975Z,98.68
2022-10-19T15:14:26.667Z,98.60
2022-10-19T15:17:00.690Z,98.64
2022-10-19T15:19:30.394Z,98.95
2022-10-19T15:22:09.539Z,98.28
2022-10-19T15:24:36.997Z,98.22
2022-10-19T15:27:19.008Z,98.49
2022-10-19T15:29:56.645Z,98.10
2022-10-19T15:32:28.389Z,97.84
2022-10-19T15:34:55.713Z,98.14
2022-10-19T15:37:24.049Z,97.32
2022-10-19T15:39:52.839Z,97.18
2022-10-19T15:42:44.764Z,97.57
2022-10-19T15:45:30.276Z,97.95
2022-10-19T15:48:23.936Z,96.87
2022-10-19T15:50:54.848Z,97.10
2022-10-19T15:53:22.588Z,97.04
2022-10-19T15:55:50.001Z,96.85
2022-10-19T15:58:18.067Z,96.97
2022-10-19T16:00:45.023Z,96.89
2022-10-19T16:03:12.405Z,96.61
2022-10-19T16:05:39.604Z,96.43
2022-10-19T16:08:10.100Z,97.00
2022-10-19T16:10:39.518Z,96.80
2022-10-19T16:13:06.525Z,96.80
2022-10-19T16:15:34.371Z,97.09
2022-10-19T16:18:01.999Z,96.97
2022-10-19T16:20:30.309Z,96.72
2022-10-19T16:22:58.473Z,97.19
2022-10-19T16:25:26.071Z,97.02
2022-10-19T16:27:53.172Z,97.30
2022-10-19T16:30:20.454Z,97.74
2022-10-19T16:32:49.157Z,97.35
2022-10-19T16:35:16.264Z,97.90
2022-10-19T16:37:43.343Z,98.21
2022-10-19T16:40:10.680Z,97.93
2022-10-19T16:42:39.214Z,97.97
2022-10-19T16:45:06.723Z,98.58
2022-10-19T16:47:33.797Z,98.05
2022-10-19T16:50:02.682Z,98.32
2022-10-19T16:52:34.451Z,98.72
2022-10-19T16:55:01.984Z,98.72
2022-10-19T16:57:30.604Z,99.19
2022-10-19T16:59:57.736Z,98.73
2022-10-19T17:02:25.101Z,98.26
2022-10-19T17:04:52.383Z,98.34
2022-10-19T17:07:19.676Z,98.66
2022-10-19T17:09:55.069Z,98.80
2022-10-19T17:12:22.425Z,98.70
2022-10-19T17:14:51.445Z,98.66
2022-10-19T17:17:18.716Z,98.94
2022-10-19T17:19:45.852Z,99.17
2022-10-19T17:22:12.837Z,98.77
2022-10-19T17:24:40.105Z,98.73
2022-10-19T17:27:07.213Z,98.79
2022-10-19T17:29:34.857Z,98.44
2022-10-19T17:32:02.005Z,98.65
2022-10-19T17:34:29.342Z,98.90
2022-10-19T17:36:56.912Z,98.87
2022-10-19T17:39:28.956Z,98.82
2022-10-19T17:42:02.311Z,98.94
2022-10-19T17:44:31.463Z,98.64
2022-10-19T17:47:00.394Z,99.36
2022-10-19T17:49:28.775Z,99.26
2022-10-19T17:51:59.806Z,98.51
2022-10-19T17:54:27.170Z,99.05
2022-10-19T17:56:54.263Z,98.63
2022-10-19T17:59:30.188Z,98.13
2022-10-19T18:02:03.548Z,98.43
2022-10-19T18:04:32.516Z,98.64
2022-10-19T18:06:59.502Z,98.73
2022-10-19T18:09:26.659Z,98.64
2022-10-19T18:11:54.643Z,99.12
2022-10-19T18:14:21.750Z,98.39
2022-10-19T18:16:52.206Z,98.45
2022-10-19T18:19:19.272Z,98.94
2022-10-19T18:21:47.689Z,99.03
2022-10-19T18:24:21.956Z,99.06
2022-10-19T18:26:50.873Z,99.67
2022-10-19T18:29:21.022Z,99.73
2022-10-19T18:31:53.438Z,99.66
2022-10-19T18:34:27.824Z,99.53
2022-10-19T18:36:55.065Z,99.99
2022-10-19T18:39:22.972Z,99.98
2022-10-19T18:41:53.886Z,100.00
2022-10-19T18:44:25.519Z,99.92
2022-10-19T18:46:58.353Z,100.00
2022-10-19T18:49:26.700Z,99.77
2022-10-19T18:51:55.988Z,100.00
2022-10-19T18:54:24.663Z,99.85
2022-10-19T18:56:52.028Z,99.79
2022-10-19T18:59:19.337Z,100.00
2022-10-19T19:01:46.505Z,99.64
2022-10-19T19:04:14.506Z,99.66
2022-10-19T19:06:42.303Z,99.62
2022-10-19T19:09:11.267Z,100.00
2022-10-19T19:11:42.078Z,99.81
2022-10-19T19:14:16.040Z,99.55
2022-10-19T19:16:45.021Z,99.50
2022-10-19T19:19:15.440Z,99.23
2022-10-19T19:22:08.576Z,99.62
2022-10-19T19:24:38.606Z,98.99
2022-10-19T19:27:09.818Z,99.24
2022-10-19T19:29:38.355Z,98.82
2022-10-19T19:32:05.792Z,99.41
2022-10-19T19:34:35.773Z,99.03
2022-10-19T19:37:04.219Z,99.45
2022-10-19T19:39:34.535Z,99.13
2022-10-19T19:42:01.660Z,98.91
2022-10-19T19:44:29.939Z,98.69
2022-10-19T19:47:17.943Z,98.80
2022-10-19T19:49:47.865Z,98.75
2022-10-19T19:52:15.683Z,98.87
2022-10-19T19:54:43.187Z,98.84
2022-10-19T19:57:10.177Z,98.71
2022-10-19T19:59:37.410Z,98.83
2022-10-19T20:02:06.381Z,98.69
2022-10-19T20:04:33.431Z,98.57
2022-10-19T20:07:00.440Z,98.17
2022-10-19T20:09:27.588Z,98.46
2022-10-19T20:11:54.530Z,98.07
2022-10-19T20:14:21.452Z,97.95
2022-10-19T20:16:48.400Z,97.99
2022-10-19T20:19:15.475Z,98.02
2022-10-19T20:21:42.902Z,97.71
2022-10-19T20:24:10.837Z,97.63
2022-10-19T20:26:38.351Z,97.70
2022-10-19T20:29:05.415Z,97.35
2022-10-19T20:31:39.107Z,97.30
2022-10-19T20:34:12.897Z,96.98
2022-10-19T20:36:40.365Z,96.74
2022-10-19T20:39:07.811Z,96.63
2022-10-19T20:41:35.307Z,97.01
2022-10-19T20:44:02.414Z,96.90
2022-10-19T20:46:30.599Z,96.74
2022-10-19T20:48:59.922Z,96.96
2022-10-19T20:51:32.508Z,96.57
2022-10-19T20:54:08.437Z,96.38
2022-10-19T20:56:39.038Z,96.50
2022-10-19T20:59:12.396Z,96.49
2022-10-19T21:01:43.473Z,96.81
2022-10-19T21:04:14.789Z,97.37
2022-10-19T21:06:53.201Z,97.33
2022-10-19T21:09:26.176Z,97.16
2022-10-19T21:12:12.643Z,97.25
2022-10-19T21:17:43.205Z,98.09
2022-10-19T21:20:12.818Z,98.06
2022-10-19T21:22:58.866Z,98.02
2022-10-19T21:31:27.142Z,97.27
2022-10-19T21:33:54.688Z,97.18
2022-10-19T21:36:40.716Z,97.18
2022-10-19T21:39:07.892Z,97.24
2022-10-19T21:44:38.097Z,97.76
2022-10-19T21:49:51.139Z,97.18
2022-10-19T21:52:55.809Z,97.30
2022-10-19T21:59:09.094Z,96.26
2022-10-19T22:06:07.656Z,95.79
2022-10-19T22:18:07.782Z,95.37
2022-10-19T22:29:51.739Z,94.75
2022-10-19T22:46:20.989Z,95.75
2022-10-19T22:49:07.100Z,95.95
2022-10-19T22:51:34.301Z,95.99
2022-10-19T22:54:01.522Z,96.09
2022-10-19T23:01:57.662Z,95.79
2022-10-19T23:05:02.253Z,96.00
2022-10-19T23:07:29.920Z,96.15
2022-10-19T23:12:41.586Z,95.96
2022-10-19T23:15:09.967Z,95.87
2022-10-19T23:17:37.926Z,95.64
2022-10-19T23:29:35.073Z,95.80
2022-10-19T23:32:21.317Z,95.56
2022-10-19T23:38:10.679Z,95.73
2022-10-19T23:40:37.590Z,95.54
2022-10-19T23:43:04.631Z,95.27
2022-10-19T23:51:21.135Z,94.95
2022-10-19T23:56:50.857Z,94.59
2022-10-19T23:59:37.266Z,94.40
